| Date | Time | Temp. (oF) | Dew Point (oF) | Rel. Hum. (%) | Press. (in.) | Wind Dir. | Wind Speed (mph) | Hourly Rainfall (in.) |
|
|---|---|---|---|---|---|---|---|---|---|
| 1 | 01/08 | 00:00 | 29 | 20 | 70 | 29.56 | S | 6 | 0.00 |
| 2 | 01/07 | 23:00 | 29 | 20 | 70 | 29.59 | S | 5 | 0.00 |
| 3 | 01/07 | 22:00 | 29 | 21 | 72 | 29.63 | S | 3 | 0.00 |
| 4 | 01/07 | 21:00 | 28 | 18 | 68 | 29.67 | SSW | 4 | 0.00 |
| 5 | 01/07 | 20:00 | 27 | 16 | 65 | 29.75 | SSW | 4 | 0.00 |
| 6 | 01/07 | 19:00 | 26 | 15 | 64 | 29.76 | S | 4 | 0.00 |
| 7 | 01/07 | 18:00 | 26 | 14 | 62 | 29.79 | S | 7 | 0.00 |
| 8 | 01/07 | 17:00 | 26 | 14 | 61 | 29.83 | SSW | 4 | 0.00 |
| 9 | 01/07 | 16:00 | 27 | 13 | 56 | 29.85 | SW | 5 | 0.00 |
| 10 | 01/07 | 15:00 | 29 | 16 | 60 | 29.87 | S | 8 | 0.00 |
| 11 | 01/07 | 14:00 | 28 | 17 | 63 | 29.91 | WSW | 6 | 0.00 |
| 12 | 01/07 | 13:00 | 27 | 17 | 67 | 29.96 | NNW | 7 | 0.00 |
| 13 | 01/07 | 12:00 | 25 | 16 | 69 | 30.01 | NW | 9 | 0.00 |
| 14 | 01/07 | 11:00 | 24 | 15 | 71 | 30.05 | NW | 16 | 0.00 |
| 15 | 01/07 | 10:00 | 22 | 14 | 71 | 30.09 | WNW | 8 | 0.00 |
| 16 | 01/07 | 09:00 | 20 | 12 | 73 | 30.09 | WNW | 11 | 0.00 |
| 17 | 01/07 | 08:00 | 18 | 12 | 80 | 30.09 | WNW | 7 | 0.00 |
| 18 | 01/07 | 07:00 | 18 | 13 | 82 | 30.08 | WSW | 5 | 0.00 |
| 19 | 01/07 | 06:00 | 20 | 15 | 82 | 30.06 | WNW | 17 | 0.00 |
| 20 | 01/07 | 05:00 | 21 | 16 | 84 | 30.03 | WNW | 7 | 0.00 |
| 21 | 01/07 | 04:00 | 23 | 18 | 84 | 30.01 | NW | 7 | 0.00 |
| 22 | 01/07 | 03:00 | 25 | 21 | 86 | 30.00 | NW | 13 | 0.00 |
| 23 | 01/07 | 02:00 | 26 | 24 | 93 | 29.99 | WNW | 9 | 0.00 |
| 24 | 01/07 | 01:00 | 28 | 27 | 100 | 29.96 | NW | 8 | 0.00 |